Terminal Aerodrome Forecast
Issued by NWS

Home | Current Version | Previous Version | Graphics & Text | Print | Product List | Glossary On
Versions: 1 2 3 4 5 6 7 8 9 10 11 12 13 14 15 16 17 18 19 20
000
FTUS43 KBIS 212339
TAFJMS
TAF
KJMS 212339Z 2200/2224 VRB03KT P6SM SKC
     FM221400 24012KT P6SM FEW250
     FM222100 27011KT P6SM SCT060 SCT150
     FM222300 31010KT P6SM BKN060=

USA.gov is the U.S. government's official web portal to all federal, state and local government web resources and services.